Time;durP1;ratioP1;P1;durP2;ratioP2;P2;SDS_P1;SDS_P2;PMS_P1;PMS_P2;Temp;Humidity;BMP_temperature;BMP_pressure;BME280_temperature;BME280_humidity;BME280_pressure;Samples;Min_cycle;Max_cycle;Signal;HPM_P1;HPM_P2
2021/12/06 00:01:29;;;;;;;51.07;22.70;;;1.10;99.90;;;;;;4272871;33;20449;-66
2021/12/06 00:04:23;;;;;;;48.83;22.97;;;1.20;99.90;;;;;;4284295;33;20249;-66
2021/12/06 00:06:58;;;;;;;48.30;21.90;;;1.20;99.90;;;;;;4290815;33;20254;-65
2021/12/06 00:09:34;;;;;;;47.67;22.63;;;1.20;99.90;;;;;;4290795;33;20161;-65
2021/12/06 00:12:07;;;;;;;51.23;23.17;;;1.20;99.90;;;;;;4289201;33;20429;-66
2021/12/06 00:15:40;;;;;;;47.43;21.87;;;1.20;99.90;;;;;;4292058;33;20172;-66
2021/12/06 00:18:24;;;;;;;48.13;21.73;;;1.20;99.90;;;;;;4301179;33;20181;-65
2021/12/06 00:21:08;;;;;;;50.10;21.90;;;1.20;99.90;;;;;;4289462;33;20659;-66
2021/12/06 00:23:42;;;;;;;45.93;21.77;;;1.30;99.90;;;;;;4291158;33;20175;-66
2021/12/06 00:26:22;;;;;;;50.03;21.80;;;1.20;99.90;;;;;;4276461;33;20548;-66
2021/12/06 00:29:17;;;;;;;47.57;21.67;;;1.20;99.90;;;;;;4280571;33;20468;-66
2021/12/06 00:31:50;;;;;;;46.90;21.60;;;1.20;99.90;;;;;;4274671;33;20566;-65
2021/12/06 00:34:33;;;;;;;47.83;22.87;;;1.10;99.90;;;;;;4265545;33;20532;-65
2021/12/06 00:37:35;;;;;;;45.47;21.03;;;1.10;99.90;;;;;;4275070;33;20612;-65
2021/12/06 00:40:13;;;;;;;46.07;20.87;;;1.10;99.90;;;;;;4267337;33;20583;-67
2021/12/06 00:42:43;;;;;;;45.43;20.80;;;1.10;99.90;;;;;;4287039;33;20437;-67
2021/12/06 00:45:35;;;;;;;45.93;21.37;;;1.10;99.90;;;;;;4276558;33;20220;-67
2021/12/06 00:48:11;;;;;;;46.73;21.63;;;1.20;99.90;;;;;;4274701;33;20182;-67
2021/12/06 00:51:01;;;;;;;48.17;20.53;;;1.20;99.90;;;;;;4271115;33;20610;-67
2021/12/06 00:53:39;;;;;;;44.53;20.40;;;1.20;99.90;;;;;;4275131;33;20173;-67
2021/12/06 00:56:13;;;;;;;41.43;19.87;;;1.10;99.90;;;;;;4275578;33;20564;-67
2021/12/06 00:58:54;;;;;;;47.60;21.20;;;1.10;99.90;;;;;;4276634;33;20296;-67
2021/12/06 01:01:25;;;;;;;44.07;20.33;;;1.20;99.90;;;;;;4280603;33;20205;-67
2021/12/06 01:03:59;;;;;;;43.03;20.13;;;1.20;99.90;;;;;;4280810;33;20181;-67
2021/12/06 01:06:31;;;;;;;48.30;20.43;;;1.20;99.90;;;;;;4281340;33;20479;-68
2021/12/06 01:08:59;;;;;;;47.30;21.67;;;1.10;99.90;;;;;;4289887;33;20479;-67
2021/12/06 01:11:36;;;;;;;50.93;22.77;;;1.20;99.90;;;;;;4281015;33;20423;-67
2021/12/06 01:14:07;;;;;;;47.90;21.57;;;1.20;99.90;;;;;;4291533;33;20181;-67
2021/12/06 01:16:37;;;;;;;46.63;22.20;;;1.20;99.90;;;;;;4279429;33;20185;-67
2021/12/06 01:19:16;;;;;;;46.40;21.27;;;1.20;99.90;;;;;;4279290;33;20182;-67
2021/12/06 01:22:03;;;;;;;48.70;22.57;;;1.20;99.90;;;;;;4279900;33;20192;-67
2021/12/06 01:25:23;;;;;;;47.13;20.93;;;1.20;99.90;;;;;;4282074;33;20150;-67
2021/12/06 01:39:19;;;;;;;45.43;20.67;;;1.30;99.90;;;;;;4280603;33;20290;-67
2021/12/06 01:42:05;;;;;;;44.67;20.97;;;1.20;99.90;;;;;;4281192;33;20467;-67
2021/12/06 01:44:52;;;;;;;44.03;19.33;;;1.20;99.90;;;;;;4279415;33;20170;-67
2021/12/06 01:47:31;;;;;;;41.23;18.73;;;1.30;99.90;;;;;;4279501;33;20169;-67
2021/12/06 01:50:20;;;;;;;41.17;19.30;;;1.30;99.90;;;;;;4280045;33;20178;-67
2021/12/06 01:52:59;;;;;;;41.00;19.70;;;1.40;99.90;;;;;;4281321;33;20174;-67
2021/12/06 01:55:35;;;;;;;37.57;18.60;;;1.40;99.90;;;;;;4279339;33;20532;-67
2021/12/06 01:58:08;;;;;;;38.23;18.27;;;1.40;99.90;;;;;;4279418;33;20217;-67
2021/12/06 02:00:51;;;;;;;40.17;17.50;;;1.50;99.90;;;;;;4280977;33;20194;-67
2021/12/06 02:03:22;;;;;;;35.93;17.87;;;1.50;99.90;;;;;;4291946;33;20434;-67
2021/12/06 02:05:56;;;;;;;37.60;17.40;;;1.50;99.90;;;;;;4280990;33;20411;-67
2021/12/06 02:08:23;;;;;;;37.40;17.73;;;1.50;99.90;;;;;;4279758;33;20269;-67
2021/12/06 02:10:58;;;;;;;35.97;17.93;;;1.40;99.90;;;;;;4277512;33;20584;-67
2021/12/06 02:13:36;;;;;;;36.57;16.77;;;1.50;99.90;;;;;;4278686;33;20208;-67
2021/12/06 02:16:08;;;;;;;37.33;17.13;;;1.50;99.90;;;;;;4277576;33;20177;-67
2021/12/06 02:18:43;;;;;;;35.80;16.50;;;1.50;99.90;;;;;;4279487;33;20532;-67
2021/12/06 02:21:25;;;;;;;35.63;16.70;;;1.50;99.90;;;;;;4278634;33;20237;-67
2021/12/06 02:24:02;;;;;;;34.73;16.33;;;1.40;99.90;;;;;;4276902;33;20174;-67
2021/12/06 02:26:34;;;;;;;33.77;16.53;;;1.40;99.90;;;;;;4289702;33;20268;-67
2021/12/06 02:29:06;;;;;;;31.83;15.73;;;1.40;99.90;;;;;;4277615;33;20499;-67
2021/12/06 02:31:37;;;;;;;32.77;16.30;;;1.40;99.90;;;;;;4276528;33;20555;-67
2021/12/06 02:34:14;;;;;;;35.37;17.13;;;1.40;99.90;;;;;;4277386;33;20516;-67
2021/12/06 02:36:48;;;;;;;35.37;16.63;;;1.40;99.90;;;;;;4276804;33;20233;-67
2021/12/06 02:39:24;;;;;;;32.10;15.77;;;1.40;99.90;;;;;;4277395;33;20211;-67
2021/12/06 02:41:56;;;;;;;34.13;16.40;;;1.40;99.90;;;;;;4276869;33;20425;-67
2021/12/06 02:44:33;;;;;;;35.83;17.73;;;1.40;99.90;;;;;;4277297;33;20583;-67
2021/12/06 02:47:07;;;;;;;36.47;17.27;;;1.30;99.90;;;;;;4277629;33;20174;-67
2021/12/06 02:49:35;;;;;;;36.53;16.97;;;1.20;99.90;;;;;;4286976;33;20454;-67
2021/12/06 02:52:06;;;;;;;34.07;16.37;;;1.20;99.90;;;;;;4276141;33;20222;-67
2021/12/06 02:54:35;;;;;;;39.73;17.80;;;1.20;99.90;;;;;;4279097;33;20454;-67
2021/12/06 02:59:47;;;;;;;35.07;17.07;;;1.20;99.90;;;;;;4277906;33;20547;-67
2021/12/06 03:02:30;;;;;;;35.10;17.10;;;1.20;99.90;;;;;;4276868;33;20246;-69
2021/12/06 03:05:08;;;;;;;37.40;18.07;;;1.10;99.90;;;;;;4276487;33;20240;-67
2021/12/06 03:07:57;;;;;;;;;;;;;;;;;;;;;
2021/12/06 03:10:52;;;;;;;36.80;17.57;;;1.10;99.90;;;;;;4277244;33;20186;-67
2021/12/06 03:13:27;;;;;;;36.77;16.97;;;1.20;99.90;;;;;;4276759;33;20476;-66
2021/12/06 03:16:02;;;;;;;36.97;17.37;;;1.20;99.90;;;;;;4276956;33;20518;-67
2021/12/06 03:18:41;;;;;;;38.37;18.20;;;1.10;99.90;;;;;;4277706;33;20174;-66
2021/12/06 03:21:18;;;;;;;39.33;18.27;;;1.10;99.90;;;;;;4275968;33;20181;-67
2021/12/06 03:23:58;;;;;;;41.47;18.30;;;1.10;99.90;;;;;;4276562;33;20199;-67
2021/12/06 03:26:39;;;;;;;36.00;17.80;;;1.20;99.90;;;;;;4276760;33;20178;-67
2021/12/06 03:29:12;;;;;;;36.67;17.07;;;1.10;99.90;;;;;;4278621;33;20198;-66
2021/12/06 03:31:57;;;;;;;39.27;17.70;;;1.10;99.90;;;;;;4275901;33;20260;-67
2021/12/06 03:34:37;;;;;;;39.30;17.40;;;1.10;99.90;;;;;;4276154;33;20479;-66
2021/12/06 03:37:13;;;;;;;36.87;17.63;;;1.10;99.90;;;;;;4276675;33;20169;-67
2021/12/06 03:39:53;;;;;;;35.27;17.43;;;1.10;99.90;;;;;;4277687;33;20432;-67
2021/12/06 03:42:27;;;;;;;35.63;17.27;;;1.20;99.90;;;;;;4275583;33;20545;-67
2021/12/06 03:44:58;;;;;;;35.97;16.53;;;1.20;99.90;;;;;;4276156;33;20433;-67
2021/12/06 03:47:41;;;;;;;32.83;16.37;;;1.10;99.90;;;;;;4275779;33;20174;-67
2021/12/06 03:50:12;;;;;;;34.23;16.67;;;1.10;99.90;;;;;;4275765;33;20538;-67
2021/12/06 03:52:43;;;;;;;34.70;16.03;;;1.10;99.90;;;;;;4276986;33;20166;-67
2021/12/06 03:55:13;;;;;;;34.40;16.00;;;1.10;99.90;;;;;;4276949;33;20446;-67
2021/12/06 03:57:41;;;;;;;37.83;16.63;;;1.10;99.90;;;;;;4277132;33;20217;-67
2021/12/06 04:00:10;;;;;;;32.17;15.80;;;1.10;99.90;;;;;;4278660;33;20158;-67
2021/12/06 04:02:38;;;;;;;33.00;15.97;;;1.00;99.90;;;;;;4277496;33;20464;-67
2021/12/06 04:05:07;;;;;;;32.83;15.50;;;1.00;99.90;;;;;;4276481;33;20437;-67
2021/12/06 04:07:35;;;;;;;35.17;16.17;;;1.00;99.90;;;;;;4275554;33;20212;-67
2021/12/06 04:10:08;;;;;;;34.33;15.80;;;1.00;99.90;;;;;;4275836;33;20263;-67
2021/12/06 04:12:38;;;;;;;31.43;15.13;;;1.00;99.90;;;;;;4278151;33;20143;-67
2021/12/06 04:15:08;;;;;;;32.63;14.93;;;1.00;99.90;;;;;;4276548;33;20173;-67
2021/12/06 04:17:40;;;;;;;32.33;15.07;;;1.00;99.90;;;;;;4278117;33;20280;-66
2021/12/06 04:20:11;;;;;;;31.53;14.73;;;1.00;99.90;;;;;;4275944;33;20182;-67
2021/12/06 04:22:43;;;;;;;30.73;14.27;;;1.00;99.90;;;;;;4275199;33;20453;-67
2021/12/06 04:25:16;;;;;;;31.53;14.17;;;1.00;99.90;;;;;;4276705;33;20538;-67
2021/12/06 04:27:50;;;;;;;31.30;13.63;;;1.00;99.90;;;;;;4275111;33;20170;-67
2021/12/06 04:30:35;;;;;;;28.60;14.00;;;0.90;99.90;;;;;;4275442;33;20495;-67
2021/12/06 04:33:06;;;;;;;31.03;14.37;;;1.00;99.90;;;;;;4274633;33;20623;-67
2021/12/06 04:35:36;;;;;;;30.93;14.33;;;1.00;99.90;;;;;;4276921;33;20404;-67
2021/12/06 04:38:05;;;;;;;33.40;14.03;;;1.00;99.90;;;;;;4276896;33;20493;-66
2021/12/06 04:40:33;;;;;;;31.30;13.93;;;1.00;99.90;;;;;;4276913;33;20243;-67
2021/12/06 04:43:04;;;;;;;28.67;13.53;;;1.00;99.90;;;;;;4277299;33;20230;-66
2021/12/06 04:45:32;;;;;;;28.93;14.10;;;1.00;99.90;;;;;;4275265;33;20233;-66
2021/12/06 04:48:00;;;;;;;31.57;14.83;;;1.00;99.90;;;;;;4275491;33;20186;-66
2021/12/06 04:50:32;;;;;;;31.47;14.20;;;0.90;99.90;;;;;;4276476;33;20454;-67
2021/12/06 04:53:09;;;;;;;31.80;13.77;;;0.80;99.90;;;;;;4276234;33;20216;-66
2021/12/06 04:55:48;;;;;;;28.77;13.93;;;0.90;99.90;;;;;;4275214;33;20242;-67
2021/12/06 04:58:27;;;;;;;30.60;14.57;;;0.90;99.90;;;;;;4275982;33;20232;-66
2021/12/06 05:01:08;;;;;;;33.93;14.63;;;0.90;99.90;;;;;;4276601;33;20378;-66
2021/12/06 05:03:43;;;;;;;30.67;14.87;;;0.90;99.90;;;;;;4277051;33;20193;-66
2021/12/06 05:06:27;;;;;;;31.03;14.17;;;0.90;99.90;;;;;;4275385;33;20237;-66
2021/12/06 05:09:04;;;;;;;30.97;14.93;;;1.00;99.90;;;;;;4275365;33;20178;-67
2021/12/06 05:11:51;;;;;;;30.17;14.17;;;1.00;99.90;;;;;;4275488;33;20556;-66
2021/12/06 05:14:25;;;;;;;31.33;14.17;;;0.90;99.90;;;;;;4274903;33;20305;-67
2021/12/06 05:16:59;;;;;;;33.07;14.70;;;0.90;99.90;;;;;;4276549;33;20153;-66
2021/12/06 05:19:29;;;;;;;32.73;15.60;;;0.90;99.90;;;;;;4274655;33;20457;-66
2021/12/06 05:22:08;;;;;;;32.17;14.70;;;0.90;99.90;;;;;;4276511;33;20145;-67
2021/12/06 05:24:40;;;;;;;31.00;14.80;;;1.00;99.90;;;;;;4276767;33;20190;-66
2021/12/06 05:27:11;;;;;;;34.70;16.10;;;0.90;99.90;;;;;;4276802;33;20384;-67
2021/12/06 05:29:45;;;;;;;32.13;15.00;;;0.90;99.90;;;;;;4276358;33;20190;-66
2021/12/06 05:32:13;;;;;;;34.33;15.53;;;0.80;99.90;;;;;;4275084;33;20178;-66
2021/12/06 05:34:43;;;;;;;37.17;16.83;;;0.90;99.90;;;;;;4276525;33;20547;-66
2021/12/06 05:37:13;;;;;;;38.90;16.97;;;0.90;99.90;;;;;;4276811;33;20477;-66
2021/12/06 05:39:46;;;;;;;34.37;16.17;;;0.90;99.90;;;;;;4276165;33;20240;-67
2021/12/06 05:42:16;;;;;;;38.17;17.07;;;0.90;99.90;;;;;;4274613;33;20442;-66
2021/12/06 05:44:44;;;;;;;33.70;16.20;;;0.80;99.90;;;;;;4277688;33;20469;-66
2021/12/06 05:47:12;;;;;;;35.63;16.30;;;0.80;99.90;;;;;;4277961;33;20474;-66
2021/12/06 05:49:40;;;;;;;37.53;16.83;;;0.80;99.90;;;;;;4277242;33;20208;-66
2021/12/06 05:52:09;;;;;;;37.57;16.77;;;0.80;99.90;;;;;;4278971;33;20426;-66
2021/12/06 05:54:38;;;;;;;38.17;17.33;;;0.80;99.90;;;;;;4279976;33;20151;-66
2021/12/06 05:57:12;;;;;;;34.40;16.97;;;0.70;99.90;;;;;;4289201;33;20462;-66
2021/12/06 05:59:40;;;;;;;38.20;16.83;;;0.70;99.90;;;;;;4278749;33;20381;-66
2021/12/06 06:02:10;;;;;;;36.60;17.20;;;0.70;99.90;;;;;;4278901;33;20473;-66
2021/12/06 06:04:39;;;;;;;34.10;16.13;;;0.70;99.90;;;;;;4280179;33;20452;-66
2021/12/06 06:07:07;;;;;;;33.37;16.63;;;0.70;99.90;;;;;;4279168;33;20434;-66
2021/12/06 06:09:35;;;;;;;33.67;15.63;;;0.70;99.90;;;;;;4278846;33;20216;-66
2021/12/06 06:12:04;;;;;;;36.77;15.97;;;0.80;99.90;;;;;;4277373;33;20461;-66
2021/12/06 06:14:38;;;;;;;37.17;16.60;;;0.80;99.90;;;;;;4277825;33;20264;-66
2021/12/06 06:17:11;;;;;;;36.23;16.73;;;0.90;99.90;;;;;;4277439;33;20205;-66
2021/12/06 06:19:47;;;;;;;39.23;17.93;;;0.80;99.90;;;;;;4277341;33;20240;-66
2021/12/06 06:22:16;;;;;;;40.30;17.13;;;0.80;99.90;;;;;;4277821;33;20181;-66
2021/12/06 06:24:46;;;;;;;37.33;17.80;;;0.70;99.90;;;;;;4276958;33;20254;-66
2021/12/06 06:27:35;;;;;;;38.97;17.10;;;0.70;99.90;;;;;;4277267;33;20434;-66
2021/12/06 06:30:07;;;;;;;40.60;17.90;;;0.70;99.90;;;;;;4278041;33;20151;-66
2021/12/06 06:32:35;;;;;;;37.33;17.97;;;0.70;99.90;;;;;;4276898;33;20228;-66
2021/12/06 06:35:03;;;;;;;43.30;17.93;;;0.80;99.90;;;;;;4277375;33;20174;-66
2021/12/06 06:37:47;;;;;;;38.03;17.47;;;0.80;99.90;;;;;;4276757;33;20281;-66
2021/12/06 06:40:18;;;;;;;41.40;17.70;;;0.80;99.90;;;;;;4277621;33;20245;-66
2021/12/06 06:42:49;;;;;;;42.07;17.67;;;0.80;99.90;;;;;;4277989;33;20189;-66
2021/12/06 06:45:20;;;;;;;37.10;16.67;;;0.80;99.90;;;;;;4277626;33;20173;-66
2021/12/06 06:47:54;;;;;;;39.27;17.53;;;0.80;99.90;;;;;;4276507;33;20601;-66
2021/12/06 06:50:28;;;;;;;37.20;17.50;;;0.80;99.90;;;;;;4277011;33;20213;-66
2021/12/06 06:52:55;;;;;;;41.67;18.03;;;0.80;99.90;;;;;;4276298;33;20182;-66
2021/12/06 06:55:24;;;;;;;41.10;18.03;;;0.80;99.90;;;;;;4277398;33;20178;-67
2021/12/06 06:58:00;;;;;;;40.47;17.43;;;0.80;99.90;;;;;;4277861;33;20177;-66
2021/12/06 07:00:33;;;;;;;36.87;17.03;;;0.80;99.90;;;;;;4276508;33;20174;-66
2021/12/06 07:03:10;;;;;;;35.70;17.47;;;0.80;99.90;;;;;;4276603;33;20244;-66
2021/12/06 07:05:39;;;;;;;41.40;17.23;;;0.80;99.90;;;;;;4277702;33;20177;-66
2021/12/06 07:08:07;;;;;;;38.60;16.80;;;0.90;99.90;;;;;;4277601;33;20229;-66
2021/12/06 07:10:35;;;;;;;38.43;17.77;;;0.90;99.90;;;;;;4277026;33;20590;-66
2021/12/06 07:13:11;;;;;;;41.70;17.60;;;0.90;99.90;;;;;;4276678;33;20216;-66
2021/12/06 07:15:47;;;;;;;41.87;16.93;;;0.80;99.90;;;;;;4276258;33;20575;-66
2021/12/06 07:18:18;;;;;;;39.97;17.27;;;0.80;99.90;;;;;;4278804;33;20177;-66
2021/12/06 07:20:46;;;;;;;43.33;17.27;;;0.70;99.90;;;;;;4276160;33;20208;-66
2021/12/06 07:23:16;;;;;;;40.20;17.13;;;0.70;99.90;;;;;;4276862;33;20230;-66
2021/12/06 07:25:44;;;;;;;36.93;16.13;;;0.70;99.90;;;;;;4277293;33;20269;-66
2021/12/06 07:28:14;;;;;;;42.50;17.37;;;0.60;99.90;;;;;;4276868;33;20286;-66
2021/12/06 07:30:42;;;;;;;38.13;17.67;;;0.60;99.90;;;;;;4277208;33;20172;-66
2021/12/06 07:33:25;;;;;;;44.70;17.50;;;0.50;99.90;;;;;;4273723;33;20217;-66
2021/12/06 07:35:57;;;;;;;43.83;17.90;;;0.50;99.90;;;;;;4276721;33;20185;-66
2021/12/06 07:38:25;;;;;;;45.87;18.30;;;0.50;99.90;;;;;;4275251;33;20192;-67
2021/12/06 07:40:54;;;;;;;42.57;18.17;;;0.50;99.90;;;;;;4288100;33;20209;-66
2021/12/06 07:43:25;;;;;;;46.13;18.13;;;0.50;99.90;;;;;;4287075;33;20205;-67
2021/12/06 07:45:55;;;;;;;44.37;18.23;;;0.60;99.90;;;;;;4277002;33;20210;-66
2021/12/06 07:48:23;;;;;;;43.03;17.90;;;0.60;99.90;;;;;;4276909;33;20249;-66
2021/12/06 07:50:50;;;;;;;43.37;18.53;;;0.60;99.90;;;;;;4277258;33;20179;-66
2021/12/06 07:53:18;;;;;;;40.63;17.13;;;0.60;99.90;;;;;;4287858;33;20208;-66
2021/12/06 07:55:48;;;;;;;38.60;16.67;;;0.60;99.90;;;;;;4287504;33;20193;-66
2021/12/06 07:58:16;;;;;;;45.20;17.40;;;0.60;99.90;;;;;;4278045;33;20200;-67
2021/12/06 08:00:50;;;;;;;43.93;18.50;;;0.60;99.90;;;;;;4287647;33;20229;-66
2021/12/06 08:03:22;;;;;;;43.80;18.40;;;0.60;99.90;;;;;;4276954;33;20244;-67
2021/12/06 08:05:52;;;;;;;46.90;18.93;;;0.70;99.90;;;;;;4277735;33;20425;-66
2021/12/06 08:08:23;;;;;;;44.00;18.37;;;0.70;99.90;;;;;;4276378;33;20211;-66
2021/12/06 08:11:02;;;;;;;48.07;18.87;;;0.70;99.90;;;;;;4277424;33;20169;-67
2021/12/06 08:13:32;;;;;;;48.53;19.97;;;0.60;99.90;;;;;;4288858;33;20193;-66
2021/12/06 08:16:09;;;;;;;44.40;18.27;;;0.60;99.90;;;;;;4275797;33;20241;-66
2021/12/06 08:18:39;;;;;;;47.87;18.57;;;0.50;99.90;;;;;;4286935;33;20193;-66
2021/12/06 08:21:14;;;;;;;47.97;18.83;;;0.50;99.90;;;;;;4275142;33;20178;-66
2021/12/06 08:23:42;;;;;;;46.47;19.13;;;0.50;99.90;;;;;;4276520;33;20209;-67
2021/12/06 08:26:11;;;;;;;44.73;18.33;;;0.50;99.90;;;;;;4288045;33;20564;-66
2021/12/06 08:28:40;;;;;;;49.87;18.63;;;0.60;99.90;;;;;;4277333;33;20368;-66
2021/12/06 08:31:10;;;;;;;48.53;18.93;;;0.60;99.90;;;;;;4277827;33;20154;-67
2021/12/06 08:33:44;;;;;;;49.83;19.20;;;0.70;99.90;;;;;;4276875;33;20174;-66
2021/12/06 08:36:20;;;;;;;43.67;19.63;;;0.60;99.90;;;;;;4277650;33;20412;-66
2021/12/06 08:38:55;;;;;;;47.33;19.40;;;0.60;99.90;;;;;;4287228;33;20203;-67
2021/12/06 08:41:28;;;;;;;48.47;19.23;;;0.60;99.90;;;;;;4277325;33;20418;-66
2021/12/06 08:43:58;;;;;;;50.87;20.60;;;0.60;99.90;;;;;;4274821;33;20170;-66
2021/12/06 08:46:33;;;;;;;54.17;20.47;;;0.60;99.90;;;;;;4287511;33;20240;-66
2021/12/06 08:49:06;;;;;;;59.47;21.53;;;0.50;99.90;;;;;;4287922;33;20198;-66
2021/12/06 08:51:37;;;;;;;55.27;21.13;;;0.50;99.90;;;;;;4288182;33;20225;-67
2021/12/06 08:54:06;;;;;;;55.67;20.27;;;0.40;99.90;;;;;;4275765;33;20213;-67
2021/12/06 08:56:36;;;;;;;60.07;21.47;;;0.40;99.90;;;;;;4276205;33;20507;-67
2021/12/06 08:59:08;;;;;;;57.10;21.37;;;0.40;99.90;;;;;;4276032;33;20377;-67
2021/12/06 09:01:36;;;;;;;56.80;21.10;;;0.40;99.90;;;;;;4276243;33;20221;-65
2021/12/06 09:04:27;;;;;;;58.40;21.60;;;0.40;99.90;;;;;;4275259;33;20475;-66
2021/12/06 09:06:57;;;;;;;53.43;21.10;;;0.30;99.90;;;;;;4288082;33;20205;-67
2021/12/06 09:09:27;;;;;;;51.60;20.43;;;0.30;99.90;;;;;;4276739;33;20200;-67
2021/12/06 09:11:58;;;;;;;56.57;20.93;;;0.30;99.90;;;;;;4275023;33;20228;-67
2021/12/06 09:14:28;;;;;;;64.53;22.07;;;0.30;99.90;;;;;;4274712;33;20455;-67
2021/12/06 09:16:57;;;;;;;58.70;22.10;;;0.40;99.90;;;;;;4277337;33;20451;-67
2021/12/06 09:19:24;;;;;;;57.50;22.43;;;0.40;99.90;;;;;;4277046;33;20497;-67
2021/12/06 09:21:52;;;;;;;53.97;21.57;;;0.40;99.90;;;;;;4289832;33;20193;-67
2021/12/06 09:24:21;;;;;;;57.93;21.13;;;0.40;99.90;;;;;;4279502;33;20433;-67
2021/12/06 09:26:51;;;;;;;52.13;20.33;;;0.40;99.90;;;;;;4278905;33;20182;-67
2021/12/06 09:29:24;;;;;;;56.57;22.00;;;0.40;99.90;;;;;;4278036;33;20209;-66
2021/12/06 09:31:57;;;;;;;59.37;21.80;;;0.40;99.90;;;;;;4279401;33;20421;-65
2021/12/06 09:34:24;;;;;;;56.93;22.23;;;0.40;99.90;;;;;;4277762;33;20480;-65
2021/12/06 09:36:52;;;;;;;64.17;22.97;;;0.40;99.90;;;;;;4290017;33;20194;-66
2021/12/06 09:39:20;;;;;;;60.50;22.10;;;0.40;99.90;;;;;;4278700;33;20182;-65
2021/12/06 09:41:51;;;;;;;66.97;23.20;;;0.40;99.90;;;;;;4278487;33;20166;-66
2021/12/06 09:44:19;;;;;;;65.97;21.93;;;0.50;99.90;;;;;;4278732;33;20174;-65
2021/12/06 09:46:47;;;;;;;73.50;24.30;;;0.50;99.90;;;;;;4277223;33;20511;-66
2021/12/06 09:49:22;;;;;;;64.93;22.83;;;0.50;99.90;;;;;;4278762;33;20276;-65
2021/12/06 09:51:57;;;;;;;67.77;23.40;;;0.50;99.90;;;;;;4276940;33;20213;-66
2021/12/06 09:54:29;;;;;;;64.63;22.63;;;0.50;99.90;;;;;;4277202;33;20277;-66
2021/12/06 09:56:58;;;;;;;63.43;22.90;;;0.50;99.90;;;;;;4279297;33;20206;-66
2021/12/06 09:59:32;;;;;;;62.60;23.03;;;0.40;99.90;;;;;;4288755;33;20525;-66
2021/12/06 10:02:03;;;;;;;67.50;24.07;;;0.40;99.90;;;;;;4277247;33;20475;-66
2021/12/06 10:04:34;;;;;;;63.07;23.33;;;0.40;99.90;;;;;;4277699;33;20170;-66
2021/12/06 10:07:04;;;;;;;68.07;23.77;;;0.40;99.90;;;;;;4278517;33;20198;-66
2021/12/06 10:09:32;;;;;;;67.37;24.17;;;0.50;99.90;;;;;;4278157;33;20285;-66
2021/12/06 10:12:00;;;;;;;68.23;24.20;;;0.60;99.90;;;;;;4277451;33;20178;-66
2021/12/06 10:14:28;;;;;;;64.50;24.93;;;0.60;99.90;;;;;;4278406;33;20392;-66
2021/12/06 10:16:56;;;;;;;67.97;24.67;;;0.60;99.90;;;;;;4278883;33;20170;-66
2021/12/06 10:19:25;;;;;;;65.87;23.80;;;0.60;99.90;;;;;;4276828;33;20283;-66
2021/12/06 10:21:54;;;;;;;63.40;24.47;;;0.50;99.90;;;;;;4276773;33;20190;-66
2021/12/06 10:24:25;;;;;;;68.07;24.80;;;0.40;99.90;;;;;;4278683;33;20424;-66
2021/12/06 10:27:13;;;;;;;69.17;24.40;;;0.40;99.90;;;;;;4278308;33;20398;-66
2021/12/06 10:29:46;;;;;;;65.13;24.20;;;0.40;99.90;;;;;;4276523;33;20613;-66
2021/12/06 10:32:17;;;;;;;66.07;24.37;;;0.30;99.90;;;;;;4277380;33;20193;-66
2021/12/06 10:34:51;;;;;;;64.67;24.73;;;0.30;99.90;;;;;;4276665;33;20213;-66
2021/12/06 10:37:45;;;;;;;61.33;23.83;;;0.30;99.90;;;;;;4278077;33;20419;-66
2021/12/06 10:40:29;;;;;;;65.00;24.10;;;0.20;99.90;;;;;;4277472;33;20177;-66
2021/12/06 10:43:02;;;;;;;63.10;23.50;;;0.20;99.90;;;;;;4278455;33;20450;-66
2021/12/06 10:45:49;;;;;;;64.80;23.47;;;0.20;99.90;;;;;;4277710;33;20374;-66
2021/12/06 10:48:25;;;;;;;65.47;23.10;;;0.20;99.90;;;;;;4278913;33;20164;-66
2021/12/06 10:50:53;;;;;;;65.57;23.10;;;0.20;99.90;;;;;;4288381;33;20240;-65
2021/12/06 10:53:28;;;;;;;59.63;23.10;;;0.20;99.90;;;;;;4288847;33;20232;-66
2021/12/06 10:55:57;;;;;;;62.20;23.53;;;0.20;99.90;;;;;;4276911;33;20181;-66
2021/12/06 10:58:28;;;;;;;60.60;22.30;;;0.30;99.90;;;;;;4288310;33;20476;-65
2021/12/06 11:01:06;;;;;;;54.27;21.23;;;0.30;99.90;;;;;;4278080;33;20508;-66
2021/12/06 11:03:45;;;;;;;58.00;22.33;;;0.20;99.90;;;;;;4288844;33;20269;-66
2021/12/06 11:06:19;;;;;;;56.63;21.67;;;0.20;99.90;;;;;;4278087;33;20206;-66
2021/12/06 11:08:49;;;;;;;59.13;22.27;;;0.20;99.90;;;;;;4276171;33;20402;-66
2021/12/06 11:11:27;;;;;;;53.60;21.43;;;0.20;99.90;;;;;;4277043;33;20242;-66
2021/12/06 11:13:58;;;;;;;54.43;22.63;;;0.10;99.90;;;;;;4275796;33;20231;-66
2021/12/06 11:16:29;;;;;;;55.13;21.80;;;0.20;99.90;;;;;;4287988;33;20274;-66
2021/12/06 11:18:59;;;;;;;54.17;21.90;;;0.30;99.90;;;;;;4277677;33;20224;-66
2021/12/06 11:21:35;;;;;;;56.80;22.00;;;0.20;99.90;;;;;;4276066;33;20185;-66
2021/12/06 11:24:17;;;;;;;57.90;22.07;;;0.20;99.90;;;;;;4276311;33;20248;-65
2021/12/06 11:27:11;;;;;;;57.43;22.43;;;0.10;99.90;;;;;;4275827;33;20249;-66
2021/12/06 11:29:45;;;;;;;52.77;22.17;;;0.20;99.90;;;;;;4263349;33;20201;-66
2021/12/06 11:32:21;;;;;;;56.03;21.63;;;0.20;99.90;;;;;;4275673;33;20219;-65
2021/12/06 11:34:58;;;;;;;56.20;21.77;;;0.20;99.90;;;;;;4264061;33;20200;-66
2021/12/06 11:37:32;;;;;;;60.17;23.57;;;0.30;99.90;;;;;;4275023;33;20268;-67
2021/12/06 11:40:19;;;;;;;60.13;23.37;;;0.30;99.90;;;;;;4264330;33;20479;-66
2021/12/06 11:42:51;;;;;;;66.47;25.47;;;0.20;99.90;;;;;;4264540;33;20423;-66
2021/12/06 11:45:34;;;;;;;68.10;25.77;;;0.10;99.90;;;;;;4263138;33;20194;-66
2021/12/06 11:48:12;;;;;;;69.17;25.50;;;0.20;99.90;;;;;;4274293;33;20619;-66
2021/12/06 11:50:46;;;;;;;63.43;24.90;;;0.20;99.90;;;;;;4276337;33;20503;-66
2021/12/06 11:53:17;;;;;;;65.93;25.53;;;0.30;99.90;;;;;;4263246;33;20315;-66
2021/12/06 11:55:58;;;;;;;59.80;24.50;;;0.20;99.90;;;;;;4275812;33;20154;-67
2021/12/06 11:58:31;;;;;;;62.70;25.27;;;0.20;99.90;;;;;;4275492;33;20225;-67
2021/12/06 12:01:07;;;;;;;62.63;23.27;;;0.20;99.90;;;;;;4275561;33;20584;-67
2021/12/06 12:03:37;;;;;;;58.20;23.30;;;0.20;99.90;;;;;;4275213;33;20485;-67
2021/12/06 12:06:21;;;;;;;56.47;22.60;;;0.10;99.90;;;;;;4259300;33;20250;-66
2021/12/06 12:09:00;;;;;;;57.93;22.80;;;0.10;99.90;;;;;;4275066;33;20469;-66
2021/12/06 12:11:27;;;;;;;61.50;22.87;;;0.10;99.90;;;;;;4276097;33;20181;-66
2021/12/06 12:13:56;;;;;;;61.63;23.43;;;0.10;99.90;;;;;;4275722;33;20402;-67
2021/12/06 12:16:24;;;;;;;57.37;22.33;;;0.00;99.90;;;;;;4275305;33;20413;-67
2021/12/06 12:18:52;;;;;;;54.17;22.13;;;0.00;99.90;;;;;;4287534;33;20248;-67
2021/12/06 12:21:19;;;;;;;59.77;21.73;;;0.10;99.90;;;;;;4275310;33;20220;-67
2021/12/06 12:23:46;;;;;;;55.37;21.47;;;0.00;99.90;;;;;;4276254;33;20249;-67
2021/12/06 12:26:16;;;;;;;55.47;22.13;;;0.00;99.90;;;;;;4275158;33;20384;-67
2021/12/06 12:29:13;;;;;;;48.63;20.87;;;0.00;99.90;;;;;;4276397;33;20198;-68
2021/12/06 12:31:33;;;;;;;52.63;21.67;;;-0.10;99.90;;;;;;4276981;33;20497;-67
2021/12/06 12:34:01;;;;;;;50.23;20.63;;;-0.10;99.90;;;;;;4276927;33;20205;-67
2021/12/06 12:36:28;;;;;;;54.80;21.83;;;-0.10;99.90;;;;;;4274712;33;20185;-67
2021/12/06 12:38:57;;;;;;;58.50;23.40;;;-0.10;99.90;;;;;;4276261;33;20434;-67
2021/12/06 12:41:28;;;;;;;55.80;21.90;;;0.00;99.90;;;;;;4274694;33;20208;-67
2021/12/06 12:44:07;;;;;;;59.50;23.73;;;-0.10;99.90;;;;;;4274446;33;20536;-66
2021/12/06 12:46:38;;;;;;;53.97;22.80;;;-0.10;99.90;;;;;;4275691;33;20501;-67
2021/12/06 12:49:23;;;;;;;61.43;24.67;;;-0.10;99.90;;;;;;4274881;33;20541;-67
2021/12/06 12:51:53;;;;;;;61.23;23.63;;;-0.10;99.90;;;;;;4275234;33;20208;-67
2021/12/06 12:54:25;;;;;;;57.37;23.10;;;0.00;99.90;;;;;;4273912;33;20229;-67
2021/12/06 12:57:00;;;;;;;58.33;23.60;;;0.00;99.90;;;;;;4274794;33;20509;-67
2021/12/06 12:59:34;;;;;;;60.27;23.97;;;0.10;99.90;;;;;;4275524;33;20244;-67
2021/12/06 13:02:35;;;;;;;60.20;23.97;;;0.00;99.90;;;;;;4275914;33;20573;-67
2021/12/06 13:05:05;;;;;;;56.37;23.50;;;0.00;99.90;;;;;;4276513;33;20241;-67
2021/12/06 13:07:39;;;;;;;55.57;22.90;;;0.00;99.90;;;;;;4274496;33;20446;-67
2021/12/06 13:10:33;;;;;;;57.50;22.87;;;0.00;99.90;;;;;;4287949;33;20210;-67
2021/12/06 13:13:11;;;;;;;69.07;25.37;;;0.00;99.90;;;;;;4274780;33;20204;-67
2021/12/06 13:16:22;;;;;;;62.60;24.63;;;0.00;99.90;;;;;;4274905;33;20176;-67
2021/12/06 13:21:44;;;;;;;62.83;24.90;;;-0.10;99.90;;;;;;4276491;33;20173;-66
2021/12/06 13:24:11;;;;;;;66.67;24.77;;;-0.20;99.90;;;;;;4275998;33;20190;-67
2021/12/06 13:26:41;;;;;;;65.03;26.27;;;-0.20;99.90;;;;;;4274404;33;20181;-67
2021/12/06 13:29:18;;;;;;;68.57;26.00;;;-0.30;99.90;;;;;;4286692;33;20327;-67
2021/12/06 13:31:45;;;;;;;69.83;26.57;;;-0.20;99.90;;;;;;4274718;33;20173;-66